createdAt,value
2018-08-06T00:02:18.714Z,8.53
2018-08-06T00:04:53.783Z,6.87
2018-08-06T00:07:27.955Z,8.67
2018-08-06T00:10:03.887Z,7.93
2018-08-06T00:12:38.522Z,8.47
2018-08-06T00:15:14.068Z,9.27
2018-08-06T00:17:48.695Z,7.30
2018-08-06T00:20:23.853Z,10.07
2018-08-06T00:22:58.656Z,6.90
2018-08-06T00:25:33.866Z,9.77
2018-08-06T00:28:08.328Z,9.20
2018-08-06T00:30:43.233Z,8.20
2018-08-06T00:33:19.624Z,8.20
2018-08-06T00:35:54.677Z,8.10
2018-08-06T00:38:29.434Z,8.20
2018-08-06T00:41:04.533Z,8.10
2018-08-06T00:43:39.551Z,8.67
2018-08-06T00:46:14.738Z,10.40
2018-08-06T00:48:49.175Z,8.30
2018-08-06T00:51:23.937Z,10.17
2018-08-06T00:53:59.326Z,10.33
2018-08-06T00:56:34.071Z,8.37
2018-08-06T00:59:09.134Z,8.37
2018-08-06T01:01:43.983Z,8.30
2018-08-06T01:04:18.648Z,8.50
2018-08-06T01:06:52.877Z,9.07
2018-08-06T01:09:27.900Z,11.33
2018-08-06T01:12:02.869Z,11.57
2018-08-06T01:14:38.316Z,12.43
2018-08-06T01:17:12.671Z,8.60
2018-08-06T01:19:47.520Z,9.53
2018-08-06T01:22:22.262Z,8.67
2018-08-06T01:24:57.283Z,10.00
2018-08-06T01:27:32.780Z,8.40
2018-08-06T01:30:10.138Z,9.50
2018-08-06T01:32:44.454Z,8.43
2018-08-06T01:35:19.274Z,7.97
2018-08-06T01:37:53.791Z,8.63
2018-08-06T01:40:28.526Z,10.90
2018-08-06T01:43:03.319Z,9.27
2018-08-06T01:45:38.121Z,9.37
2018-08-06T01:48:12.560Z,9.43
2018-08-06T01:50:47.645Z,8.80
2018-08-06T01:53:22.021Z,8.77
2018-08-06T01:55:56.789Z,10.43
2018-08-06T01:58:31.619Z,14.00
2018-08-06T02:01:06.534Z,9.80
2018-08-06T02:03:41.272Z,10.30
2018-08-06T02:06:16.327Z,10.20
2018-08-06T02:08:51.294Z,8.83
2018-08-06T02:11:26.252Z,11.60
2018-08-06T02:14:01.129Z,9.37
2018-08-06T02:16:35.857Z,8.13
2018-08-06T02:19:11.233Z,8.57
2018-08-06T02:21:46.842Z,10.50
2018-08-06T02:24:21.910Z,8.90
2018-08-06T02:26:57.029Z,9.30
2018-08-06T02:29:32.172Z,9.00
2018-08-06T02:32:07.047Z,8.80
2018-08-06T02:34:42.056Z,9.50
2018-08-06T02:37:16.677Z,8.70
2018-08-06T02:39:51.471Z,6.87
2018-08-06T02:42:26.331Z,7.77
2018-08-06T02:45:00.877Z,8.27
2018-08-06T02:47:36.282Z,6.97
2018-08-06T02:50:11.990Z,7.57
2018-08-06T02:52:47.512Z,8.50
2018-08-06T02:55:22.586Z,8.33
2018-08-06T02:57:57.748Z,8.30
2018-08-06T03:00:33.139Z,8.67
2018-08-06T03:03:08.132Z,8.33
2018-08-06T03:05:42.627Z,9.13
2018-08-06T03:08:18.580Z,8.70
2018-08-06T03:10:53.347Z,13.83
2018-08-06T03:13:28.130Z,9.43
2018-08-06T03:16:02.734Z,9.17
2018-08-06T03:18:37.158Z,10.20
2018-08-06T03:21:12.067Z,9.90
2018-08-06T03:23:46.905Z,9.53
2018-08-06T03:26:21.819Z,10.50
2018-08-06T03:28:56.194Z,9.70
2018-08-06T03:31:30.817Z,9.50
2018-08-06T03:34:05.463Z,9.30
2018-08-06T03:36:39.995Z,13.17
2018-08-06T03:39:14.804Z,13.00
2018-08-06T03:41:49.601Z,10.30
2018-08-06T03:44:24.570Z,10.50
2018-08-06T03:46:58.796Z,10.17
2018-08-06T03:49:33.908Z,9.67
2018-08-06T03:52:08.967Z,11.63
2018-08-06T03:54:44.135Z,11.57
2018-08-06T03:57:18.781Z,11.97
2018-08-06T03:59:53.275Z,10.13
2018-08-06T04:02:28.055Z,10.97
2018-08-06T04:05:03.930Z,13.23
2018-08-06T04:07:39.461Z,10.67
2018-08-06T04:10:16.197Z,10.87
2018-08-06T04:12:50.610Z,12.17
2018-08-06T04:15:25.410Z,12.10
2018-08-06T04:18:00.158Z,11.17
2018-08-06T04:20:35.039Z,14.50
2018-08-06T04:23:09.740Z,11.33
2018-08-06T04:25:44.468Z,15.80
2018-08-06T04:28:19.253Z,9.60
2018-08-06T04:30:53.716Z,11.43
2018-08-06T04:33:28.255Z,10.33
2018-08-06T04:36:03.071Z,12.37
2018-08-06T04:38:37.805Z,15.30
2018-08-06T04:41:12.907Z,13.60
2018-08-06T04:43:47.338Z,11.40
2018-08-06T04:46:21.873Z,12.50
2018-08-06T04:48:56.276Z,11.30
2018-08-06T04:51:30.939Z,14.70
2018-08-06T04:54:06.733Z,11.83
2018-08-06T04:56:41.460Z,10.63
2018-08-06T04:59:16.627Z,12.13
2018-08-06T05:01:50.953Z,11.37
2018-08-06T05:04:25.693Z,11.30
2018-08-06T05:07:00.623Z,11.37
2018-08-06T05:09:40.240Z,12.13
2018-08-06T05:12:14.544Z,13.87
2018-08-06T05:14:49.521Z,13.70
2018-08-06T05:17:24.305Z,14.13
2018-08-06T05:19:59.306Z,13.80
2018-08-06T05:22:33.750Z,12.17
2018-08-06T05:25:08.685Z,11.80
2018-08-06T05:27:43.481Z,15.33
2018-08-06T05:30:18.655Z,13.67
2018-08-06T05:32:52.916Z,16.63
2018-08-06T05:35:27.675Z,13.50
2018-08-06T05:38:02.166Z,13.63
2018-08-06T05:40:37.445Z,15.17
2018-08-06T05:43:11.926Z,12.80
2018-08-06T05:45:46.872Z,19.13
2018-08-06T05:48:21.824Z,14.37
2018-08-06T05:50:56.582Z,13.27
2018-08-06T05:53:31.095Z,16.60
2018-08-06T05:56:07.311Z,14.83
2018-08-06T05:58:42.554Z,15.50
2018-08-06T06:01:17.379Z,17.83
2018-08-06T06:03:52.237Z,36.43
2018-08-06T06:06:26.542Z,14.63
2018-08-06T06:09:01.274Z,16.90
2018-08-06T06:11:36.453Z,15.13
2018-08-06T06:14:10.760Z,13.60
2018-08-06T06:16:46.003Z,12.57
2018-08-06T06:19:20.921Z,14.33
2018-08-06T06:21:55.798Z,16.03
2018-08-06T06:24:30.601Z,12.63
2018-08-06T06:27:05.834Z,17.43
2018-08-06T06:29:40.209Z,14.73
2018-08-06T06:32:15.223Z,19.07
2018-08-06T06:34:50.040Z,13.60
2018-08-06T06:37:25.396Z,12.50
2018-08-06T06:39:59.610Z,14.90
2018-08-06T06:42:34.841Z,15.27
2018-08-06T06:45:10.411Z,13.67
2018-08-06T06:47:45.340Z,14.13
2018-08-06T06:50:19.978Z,22.40
2018-08-06T06:52:54.697Z,19.13
2018-08-06T06:55:29.179Z,19.97
2018-08-06T06:58:04.545Z,17.53
2018-08-06T07:00:39.260Z,18.83
2018-08-06T07:03:14.521Z,18.77
2018-08-06T07:05:48.803Z,19.10
2018-08-06T07:08:24.126Z,20.90
2018-08-06T07:10:58.971Z,19.47
2018-08-06T07:13:33.824Z,23.37
2018-08-06T07:16:08.884Z,17.10
2018-08-06T07:18:43.508Z,17.63
2018-08-06T07:21:17.812Z,16.97
2018-08-06T07:23:52.436Z,19.70
2018-08-06T07:26:27.375Z,16.93
2018-08-06T07:29:02.375Z,23.57
2018-08-06T07:31:36.938Z,17.47
2018-08-06T07:34:11.859Z,15.40
2018-08-06T07:36:46.920Z,18.73
2018-08-06T07:39:21.251Z,16.73
2018-08-06T07:41:56.132Z,18.57
2018-08-06T07:44:32.729Z,17.57
2018-08-06T07:47:08.046Z,16.23
2018-08-06T07:49:42.624Z,18.73
2018-08-06T07:52:17.224Z,15.83
2018-08-06T07:54:51.906Z,17.27
2018-08-06T07:57:28.318Z,19.83
2018-08-06T08:00:05.191Z,15.90
2018-08-06T08:02:41.093Z,16.53
2018-08-06T08:05:16.834Z,17.37
2018-08-06T08:07:52.319Z,18.90
2018-08-06T08:10:28.154Z,21.77
2018-08-06T08:13:03.831Z,18.17
2018-08-06T08:15:38.599Z,16.90
2018-08-06T08:18:13.405Z,16.73
2018-08-06T08:20:48.093Z,14.33
2018-08-06T08:23:22.592Z,14.33
2018-08-06T08:25:57.877Z,15.60
2018-08-06T08:28:32.553Z,17.00
2018-08-06T08:31:07.337Z,14.00
2018-08-06T08:33:43.449Z,17.63
2018-08-06T08:36:18.172Z,21.63
2018-08-06T08:38:53.082Z,15.60
2018-08-06T08:41:28.077Z,17.00
2018-08-06T08:44:02.526Z,17.67
2018-08-06T08:46:37.216Z,14.50
2018-08-06T08:49:11.970Z,13.70
2018-08-06T08:51:47.206Z,15.60
2018-08-06T08:54:22.413Z,20.70
2018-08-06T08:56:57.914Z,14.40
2018-08-06T08:59:33.173Z,11.60
2018-08-06T09:02:07.612Z,11.23
2018-08-06T09:04:42.256Z,12.73
2018-08-06T09:07:17.400Z,19.03
2018-08-06T09:09:51.913Z,13.80
2018-08-06T09:12:26.990Z,15.53
2018-08-06T09:15:01.361Z,14.03
2018-08-06T09:17:36.505Z,12.70
2018-08-06T09:20:11.433Z,25.57
2018-08-06T09:22:46.427Z,15.10
2018-08-06T09:25:20.785Z,18.03
2018-08-06T09:27:56.013Z,11.53
2018-08-06T09:30:30.705Z,21.90
2018-08-06T09:33:05.865Z,14.10
2018-08-06T09:35:40.319Z,21.47
2018-08-06T09:38:15.133Z,11.50
2018-08-06T09:40:49.810Z,9.80
2018-08-06T09:43:24.687Z,13.93
2018-08-06T09:45:59.099Z,11.40
2018-08-06T09:48:33.917Z,15.03
2018-08-06T09:51:09.064Z,11.90
2018-08-06T09:53:43.637Z,12.00
2018-08-06T09:56:18.767Z,12.37
2018-08-06T09:58:53.783Z,12.77
2018-08-06T10:01:34.037Z,17.43
2018-08-06T10:04:09.162Z,14.37
2018-08-06T10:06:43.901Z,10.30
2018-08-06T10:09:18.972Z,9.40
2018-08-06T10:11:53.780Z,13.63
2018-08-06T10:14:29.093Z,8.77
2018-08-06T10:17:03.928Z,8.80
2018-08-06T10:19:38.758Z,9.77
2018-08-06T10:22:13.321Z,8.53
2018-08-06T10:24:48.386Z,9.00
2018-08-06T10:27:23.612Z,11.80
2018-08-06T10:29:58.972Z,8.50
2018-08-06T10:32:33.949Z,10.53
2018-08-06T10:35:10.749Z,10.40
2018-08-06T10:37:45.249Z,8.50
2018-08-06T10:40:21.629Z,8.57
2018-08-06T10:42:55.911Z,14.03
2018-08-06T10:45:31.774Z,8.40
2018-08-06T10:48:06.536Z,11.50
2018-08-06T10:50:41.308Z,7.90
2018-08-06T10:53:15.517Z,8.07
2018-08-06T10:55:50.268Z,8.73
2018-08-06T10:58:25.033Z,8.80
2018-08-06T11:01:00.542Z,12.63
2018-08-06T11:03:36.256Z,8.97
2018-08-06T11:06:11.795Z,11.57
2018-08-06T11:08:46.844Z,7.17
2018-08-06T11:11:21.406Z,9.83
2018-08-06T11:13:56.230Z,8.17
2018-08-06T11:16:31.136Z,9.20
2018-08-06T11:19:05.728Z,9.27
2018-08-06T11:21:40.413Z,8.83
2018-08-06T11:24:14.689Z,8.67
2018-08-06T11:26:49.918Z,10.63
2018-08-06T11:29:24.350Z,10.37
2018-08-06T11:31:59.571Z,9.93
2018-08-06T11:34:34.405Z,13.90
2018-08-06T11:37:09.361Z,9.90
2018-08-06T11:39:44.058Z,9.70
2018-08-06T11:42:18.984Z,12.17
2018-08-06T11:44:53.646Z,13.17
2018-08-06T11:47:28.479Z,11.27
2018-08-06T11:50:03.722Z,9.03
2018-08-06T11:52:38.167Z,10.93
2018-08-06T11:55:12.852Z,8.43
2018-08-06T11:57:47.005Z,14.53
2018-08-06T12:00:23.490Z,8.10
2018-08-06T12:02:58.208Z,10.63
2018-08-06T12:05:33.158Z,7.50
2018-08-06T12:08:07.509Z,12.03
2018-08-06T12:10:42.648Z,8.67
2018-08-06T12:13:16.900Z,11.23
2018-08-06T12:15:51.467Z,8.17
2018-08-06T12:18:26.050Z,11.20
2018-08-06T12:21:01.004Z,8.73
2018-08-06T12:23:35.910Z,8.30
2018-08-06T12:26:10.704Z,8.30
2018-08-06T12:28:45.301Z,11.70
2018-08-06T12:31:20.947Z,8.10
2018-08-06T12:33:55.973Z,8.97
2018-08-06T12:36:30.744Z,7.97
2018-08-06T12:39:11.282Z,6.63
2018-08-06T12:41:45.455Z,10.50
2018-08-06T12:44:20.294Z,7.87
2018-08-06T12:46:55.131Z,8.47
2018-08-06T12:49:29.794Z,7.90
2018-08-06T12:52:04.811Z,6.57
2018-08-06T12:54:39.679Z,15.90
2018-08-06T12:57:14.753Z,9.80
2018-08-06T12:59:49.442Z,7.90
2018-08-06T13:02:24.160Z,15.13
2018-08-06T13:04:59.366Z,6.73
2018-08-06T13:07:34.246Z,10.03
2018-08-06T13:10:09.225Z,7.10
2018-08-06T13:12:44.366Z,12.13
2018-08-06T13:15:18.603Z,11.80
2018-08-06T13:17:53.362Z,7.03
2018-08-06T13:20:28.249Z,8.63
2018-08-06T13:23:02.905Z,9.77
2018-08-06T13:25:37.828Z,14.03
2018-08-06T13:28:12.563Z,8.50
2018-08-06T13:30:47.223Z,7.80
2018-08-06T13:33:22.187Z,8.13
2018-08-06T13:35:56.711Z,11.33
2018-08-06T13:38:31.480Z,10.03
2018-08-06T13:41:06.574Z,11.00
2018-08-06T13:43:40.955Z,6.63
2018-08-06T13:46:15.668Z,10.53
2018-08-06T13:48:50.774Z,7.57
2018-08-06T13:51:25.841Z,8.80
2018-08-06T13:54:00.546Z,9.30
2018-08-06T13:56:35.347Z,6.80
2018-08-06T13:59:09.561Z,7.43
2018-08-06T14:01:44.587Z,8.77
2018-08-06T14:04:19.302Z,8.30
2018-08-06T14:06:54.546Z,11.40
2018-08-06T14:09:29.110Z,7.87
2018-08-06T14:12:04.159Z,7.47
2018-08-06T14:14:38.857Z,6.97
2018-08-06T14:17:13.595Z,7.93
2018-08-06T14:19:48.280Z,8.87
2018-08-06T14:22:23.578Z,14.90
2018-08-06T14:24:58.197Z,7.60
2018-08-06T14:27:33.018Z,8.30
2018-08-06T14:30:10.939Z,9.53
2018-08-06T14:32:45.648Z,6.77
2018-08-06T14:35:20.338Z,6.67
2018-08-06T14:37:54.988Z,6.70
2018-08-06T14:40:29.808Z,7.57
2018-08-06T14:43:04.955Z,7.83
2018-08-06T14:45:39.357Z,5.80
2018-08-06T14:48:14.623Z,8.40
2018-08-06T14:50:48.934Z,5.83
2018-08-06T14:53:23.816Z,10.97
2018-08-06T14:55:58.323Z,13.60
2018-08-06T14:58:33.287Z,8.43
2018-08-06T15:01:07.821Z,6.30
2018-08-06T15:03:43.258Z,7.13
2018-08-06T15:06:17.787Z,7.30
2018-08-06T15:08:52.378Z,8.13
2018-08-06T15:11:27.730Z,9.73
2018-08-06T15:14:02.970Z,7.10
2018-08-06T15:16:37.900Z,6.03
2018-08-06T15:19:13.083Z,8.17
2018-08-06T15:21:47.344Z,6.63
2018-08-06T15:24:22.104Z,12.60
2018-08-06T15:26:56.938Z,7.17
2018-08-06T15:29:31.918Z,13.93
2018-08-06T15:32:07.017Z,16.20
2018-08-06T15:34:41.477Z,5.93
2018-08-06T15:37:16.040Z,9.80
2018-08-06T15:39:51.171Z,6.47
2018-08-06T15:42:25.537Z,5.80
2018-08-06T15:45:00.519Z,7.27
2018-08-06T15:47:35.061Z,6.30
2018-08-06T15:50:13.904Z,6.33
2018-08-06T15:52:48.414Z,12.03
2018-08-06T15:55:23.269Z,7.00
2018-08-06T15:57:57.636Z,6.40
2018-08-06T16:00:32.875Z,6.87
2018-08-06T16:03:07.442Z,6.93
2018-08-06T16:05:41.972Z,8.17
2018-08-06T16:08:16.920Z,6.50
2018-08-06T16:10:52.133Z,10.87
2018-08-06T16:13:26.913Z,5.67
2018-08-06T16:16:01.806Z,11.70
2018-08-06T16:18:36.716Z,6.27
2018-08-06T16:21:11.496Z,8.60
2018-08-06T16:23:46.348Z,6.33
2018-08-06T16:26:21.112Z,5.70
2018-08-06T16:28:55.905Z,7.00
2018-08-06T16:31:31.050Z,15.57
2018-08-06T16:34:05.861Z,5.23
2018-08-06T16:36:40.994Z,7.80
2018-08-06T16:39:15.672Z,9.90
2018-08-06T16:41:50.686Z,5.60
2018-08-06T16:44:25.634Z,5.50
2018-08-06T16:47:00.410Z,7.90
2018-08-06T16:49:35.439Z,5.57
2018-08-06T16:52:10.112Z,7.57
2018-08-06T16:54:44.684Z,8.07
2018-08-06T16:57:20.091Z,5.23
2018-08-06T16:59:54.295Z,6.93
2018-08-06T17:02:28.975Z,7.10
2018-08-06T17:05:06.027Z,5.33
2018-08-06T17:07:42.479Z,5.50
2018-08-06T17:10:18.391Z,5.63
2018-08-06T17:12:54.192Z,5.17
2018-08-06T17:15:29.080Z,5.93
2018-08-06T17:18:04.156Z,6.33
2018-08-06T17:20:39.183Z,7.93
2018-08-06T17:23:14.331Z,10.37
2018-08-06T17:25:48.806Z,11.43
2018-08-06T17:28:23.622Z,5.80
2018-08-06T17:30:58.652Z,5.43
2018-08-06T17:33:33.626Z,9.13
2018-08-06T17:36:08.484Z,5.93
2018-08-06T17:38:43.417Z,6.20
2018-08-06T17:41:18.406Z,4.73
2018-08-06T17:43:53.907Z,8.63
2018-08-06T17:46:28.390Z,8.33
2018-08-06T17:49:04.283Z,11.00
2018-08-06T17:51:39.182Z,5.90
2018-08-06T17:54:13.888Z,6.63
2018-08-06T17:56:48.396Z,8.20
2018-08-06T17:59:23.533Z,5.57
2018-08-06T18:01:58.501Z,6.17
2018-08-06T18:04:33.316Z,5.20
2018-08-06T18:07:07.761Z,7.23
2018-08-06T18:09:43.028Z,5.00
2018-08-06T18:12:17.270Z,5.60
2018-08-06T18:14:52.287Z,6.63
2018-08-06T18:17:27.397Z,6.17
2018-08-06T18:20:02.205Z,9.97
2018-08-06T18:22:36.802Z,8.03
2018-08-06T18:25:13.566Z,5.53
2018-08-06T18:27:48.845Z,5.37
2018-08-06T18:30:24.025Z,7.10
2018-08-06T18:32:58.490Z,6.63
2018-08-06T18:35:33.607Z,7.60
2018-08-06T18:38:08.150Z,6.77
2018-08-06T18:40:42.714Z,6.10
2018-08-06T18:43:17.505Z,5.83
2018-08-06T18:45:52.088Z,13.33
2018-08-06T18:48:26.954Z,5.77
2018-08-06T18:51:01.975Z,6.60
2018-08-06T18:53:36.802Z,7.87
2018-08-06T18:56:11.745Z,11.00
2018-08-06T18:58:46.191Z,7.23
2018-08-06T19:01:21.082Z,6.13
2018-08-06T19:03:55.775Z,9.33
2018-08-06T19:06:30.806Z,7.93
2018-08-06T19:09:14.769Z,10.80
2018-08-06T19:11:50.054Z,12.00
2018-08-06T19:14:24.921Z,13.67
2018-08-06T19:17:00.210Z,14.90
2018-08-06T19:19:34.599Z,11.97
2018-08-06T19:22:09.462Z,11.27
2018-08-06T19:24:50.200Z,10.43
2018-08-06T19:27:25.372Z,13.43
2018-08-06T19:29:59.949Z,9.03
2018-08-06T19:32:34.537Z,10.00
2018-08-06T19:35:09.501Z,12.20
2018-08-06T19:37:46.591Z,11.20
2018-08-06T19:40:21.203Z,9.80
2018-08-06T19:43:01.782Z,8.50
2018-08-06T19:45:36.599Z,10.20
2018-08-06T19:48:11.252Z,12.27
2018-08-06T19:50:45.764Z,8.80
2018-08-06T19:53:20.759Z,13.20
2018-08-06T19:56:00.758Z,13.37
2018-08-06T19:58:35.716Z,8.57
2018-08-06T20:01:10.579Z,7.27
2018-08-06T20:03:45.496Z,9.90
2018-08-06T20:06:20.629Z,9.90
2018-08-06T20:08:55.037Z,7.73
2018-08-06T20:11:29.856Z,8.00
2018-08-06T20:14:04.931Z,8.63
2018-08-06T20:16:39.238Z,7.43
2018-08-06T20:19:14.110Z,9.90
2018-08-06T20:21:49.173Z,10.23
2018-08-06T20:24:23.971Z,11.23
2018-08-06T20:26:58.741Z,6.97
2018-08-06T20:29:33.495Z,11.33
2018-08-06T20:32:08.010Z,10.17
2018-08-06T20:34:42.814Z,10.17
2018-08-06T20:37:17.509Z,8.90
2018-08-06T20:39:52.325Z,10.00
2018-08-06T20:42:27.143Z,13.70
2018-08-06T20:45:02.367Z,8.67
2018-08-06T20:47:37.170Z,10.27
2018-08-06T20:50:14.890Z,11.23
2018-08-06T20:52:50.520Z,9.93
2018-08-06T20:55:25.150Z,9.83
2018-08-06T20:57:59.882Z,11.57
2018-08-06T21:00:34.714Z,12.73
2018-08-06T21:03:09.235Z,10.47
2018-08-06T21:05:44.098Z,12.23
2018-08-06T21:08:18.901Z,11.63
2018-08-06T21:10:53.648Z,13.03
2018-08-06T21:13:28.338Z,9.83
2018-08-06T21:16:03.473Z,12.73
2018-08-06T21:18:37.841Z,8.53
2018-08-06T21:21:12.641Z,12.97
2018-08-06T21:23:47.348Z,10.30
2018-08-06T21:26:22.311Z,8.73
2018-08-06T21:28:57.078Z,8.63
2018-08-06T21:31:31.517Z,7.10
2018-08-06T21:34:06.303Z,8.87
2018-08-06T21:36:41.274Z,9.00
2018-08-06T21:39:16.464Z,7.70
2018-08-06T21:41:51.204Z,7.43
2018-08-06T21:44:25.925Z,6.93
2018-08-06T21:47:00.914Z,10.40
2018-08-06T21:49:35.256Z,10.13
2018-08-06T21:52:10.253Z,6.53
2018-08-06T21:54:44.732Z,6.20
2018-08-06T21:57:19.614Z,5.30
2018-08-06T21:59:53.951Z,5.63
2018-08-06T22:02:28.418Z,8.53
2018-08-06T22:05:03.064Z,10.93
2018-08-06T22:07:37.703Z,7.43
2018-08-06T22:10:12.300Z,9.20
2018-08-06T22:12:47.174Z,5.97
2018-08-06T22:15:21.977Z,6.57
2018-08-06T22:17:56.934Z,6.27
2018-08-06T22:20:31.534Z,7.60
2018-08-06T22:23:06.419Z,5.87
2018-08-06T22:25:41.068Z,7.23
2018-08-06T22:28:15.675Z,7.10
2018-08-06T22:30:50.400Z,7.13
2018-08-06T22:33:25.269Z,7.07
2018-08-06T22:36:00.181Z,7.10
2018-08-06T22:38:35.007Z,8.43
2018-08-06T22:41:09.615Z,7.57
2018-08-06T22:43:44.333Z,7.27
2018-08-06T22:46:18.863Z,6.90
2018-08-06T22:48:53.176Z,6.43
2018-08-06T22:51:28.502Z,7.03
2018-08-06T22:54:02.857Z,9.40
2018-08-06T22:56:37.896Z,9.10
2018-08-06T22:59:12.962Z,6.67
2018-08-06T23:01:47.692Z,8.70
2018-08-06T23:04:22.719Z,7.70
2018-08-06T23:06:57.133Z,8.97
2018-08-06T23:09:32.025Z,6.43
2018-08-06T23:12:07.514Z,7.17
2018-08-06T23:14:41.959Z,6.50
2018-08-06T23:17:16.753Z,6.77
2018-08-06T23:19:51.523Z,7.47
2018-08-06T23:22:26.596Z,6.87
2018-08-06T23:25:01.553Z,8.23
2018-08-06T23:27:36.801Z,8.00
2018-08-06T23:30:14.206Z,7.27
2018-08-06T23:32:48.687Z,8.60
2018-08-06T23:35:23.409Z,7.97
2018-08-06T23:37:58.210Z,6.60
2018-08-06T23:40:32.990Z,7.50
2018-08-06T23:43:07.706Z,7.43
2018-08-06T23:45:42.336Z,7.93
2018-08-06T23:48:16.983Z,9.57
2018-08-06T23:50:51.705Z,7.87
2018-08-06T23:53:26.854Z,9.20
2018-08-06T23:56:01.195Z,8.93
2018-08-06T23:58:35.845Z,7.73
